Time;durP1;ratioP1;P1;durP2;ratioP2;P2;SDS_P1;SDS_P2;PMS_P1;PMS_P2;Temp;Humidity;BMP_temperature;BMP_pressure;BME280_temperature;BME280_humidity;BME280_pressure;Samples;Min_cycle;Max_cycle;Signal;HPM_P1;HPM_P2
2022/01/12 05:35:20;;;;;;;42.10;40.00;;;-10.10;77.90;;;;;;5070145;28;20387;-64
2022/01/12 05:37:46;;;;;;;33.85;32.25;;;-10.10;79.60;;;;;;5068054;28;20029;-64
2022/01/12 05:40:14;;;;;;;37.83;36.33;;;-10.00;80.70;;;;;;5069645;28;20074;-65
2022/01/12 05:42:40;;;;;;;30.25;29.25;;;-9.70;81.30;;;;;;5067370;28;20419;-65
2022/01/12 05:45:07;;;;;;;36.30;34.83;;;-9.40;81.60;;;;;;5067647;28;20059;-64
2022/01/12 05:49:34;;;;;;;29.42;28.23;;;-9.10;81.90;;;;;;5067721;28;20056;-64
2022/01/12 05:50:28;;;;;;;36.45;34.17;;;-8.90;80.30;;;;;;5068219;28;20033;-65
2022/01/12 05:52:54;;;;;;;33.70;31.60;;;-8.80;80.10;;;;;;5067562;28;20033;-65
2022/01/12 05:55:20;;;;;;;33.13;31.55;;;-8.50;80.40;;;;;;5070509;28;20432;-65
2022/01/12 05:57:47;;;;;;;31.95;30.08;;;-8.30;80.30;;;;;;5068937;28;20079;-66
2022/01/12 06:00:15;;;;;;;31.25;29.95;;;-8.10;80.00;;;;;;5066980;28;20033;-65
2022/01/12 06:02:41;;;;;;;30.60;29.00;;;-7.90;79.80;;;;;;5096707;28;20498;-69
2022/01/12 06:05:08;;;;;;;37.70;34.88;;;-7.80;79.60;;;;;;5068563;28;20120;-70
2022/01/12 06:07:35;;;;;;;31.05;29.00;;;-7.60;79.70;;;;;;5069619;28;20029;-69
2022/01/12 06:10:00;;;;;;;30.35;29.05;;;-7.50;79.30;;;;;;5063075;28;20025;-69
2022/01/12 06:12:26;;;;;;;33.80;31.35;;;-7.50;78.60;;;;;;5063923;28;20024;-70
2022/01/12 06:14:52;;;;;;;36.53;34.47;;;-7.60;78.10;;;;;;5067292;28;20032;-69
2022/01/12 06:17:18;;;;;;;33.92;32.45;;;-7.60;78.20;;;;;;5066023;28;20032;-70
2022/01/12 06:19:44;;;;;;;31.55;30.00;;;-7.60;78.50;;;;;;5068326;28;20035;-70
2022/01/12 06:22:10;;;;;;;29.77;27.77;;;-7.70;77.90;;;;;;5065191;28;20025;-69
2022/01/12 06:24:36;;;;;;;41.58;37.83;;;-7.80;77.60;;;;;;5067415;28;20032;-69
2022/01/12 06:27:04;;;;;;;33.20;31.17;;;-7.80;77.50;;;;;;5067891;28;20020;-69
2022/01/12 06:29:42;;;;;;;32.25;30.50;;;-7.80;77.80;;;;;;5048744;28;20098;-70
2022/01/12 06:32:08;;;;;;;32.95;31.00;;;-7.80;77.80;;;;;;5046891;28;20025;-69
2022/01/12 06:34:35;;;;;;;34.80;32.67;;;-7.90;77.40;;;;;;5046435;28;20388;-65
2022/01/12 06:37:01;;;;;;;33.70;31.75;;;-7.80;78.00;;;;;;5048057;28;20026;-73
2022/01/12 06:39:26;;;;;;;29.73;28.55;;;-7.80;77.60;;;;;;5046821;28;20040;-74
2022/01/12 06:41:54;;;;;;;32.78;30.77;;;-7.80;77.10;;;;;;5046921;28;20025;-75
2022/01/12 06:44:21;;;;;;;37.47;34.80;;;-7.90;76.90;;;;;;5070169;28;20464;-75
2022/01/12 06:46:52;;;;;;;32.13;30.33;;;-7.90;77.40;;;;;;5023851;28;20383;-75
2022/01/12 06:49:18;;;;;;;36.88;35.03;;;-7.70;78.00;;;;;;5024003;28;20057;-75
2022/01/12 06:51:45;;;;;;;36.92;34.65;;;-7.60;77.90;;;;;;5058750;28;20025;-78
2022/01/12 06:54:12;;;;;;;29.27;27.95;;;-7.70;76.60;;;;;;5033494;28;20033;-73
2022/01/12 06:56:38;;;;;;;33.75;32.25;;;-7.80;76.40;;;;;;5033688;28;20045;-72
2022/01/12 06:59:05;;;;;;;35.03;33.08;;;-7.80;77.00;;;;;;5028654;28;20025;-73
2022/01/12 07:01:31;;;;;;;35.70;32.40;;;-7.80;76.90;;;;;;5033371;28;20070;-73
2022/01/12 07:03:57;;;;;;;32.95;31.48;;;-7.80;76.80;;;;;;5035146;28;20475;-72
2022/01/12 07:06:23;;;;;;;35.65;33.63;;;-7.80;76.90;;;;;;5053380;28;20028;-76
2022/01/12 07:08:49;;;;;;;31.52;30.33;;;-7.80;77.30;;;;;;5034813;28;20025;-74
2022/01/12 07:11:15;;;;;;;31.02;29.58;;;-7.70;77.50;;;;;;5034363;28;20460;-75
2022/01/12 07:13:41;;;;;;;31.40;29.77;;;-7.80;76.60;;;;;;5034667;28;20442;-72
2022/01/12 07:16:07;;;;;;;33.35;31.27;;;-7.80;76.40;;;;;;5033764;28;20034;-71
2022/01/12 07:18:32;;;;;;;28.60;27.40;;;-7.90;76.00;;;;;;5034356;28;20029;-75
2022/01/12 07:20:59;;;;;;;31.42;29.73;;;-8.00;76.00;;;;;;5034388;28;20032;-74
2022/01/12 07:23:25;;;;;;;31.83;30.40;;;-8.00;75.70;;;;;;5034535;28;20040;-76
2022/01/12 07:25:52;;;;;;;33.97;31.75;;;-8.10;75.50;;;;;;5032670;28;20026;-76
2022/01/12 07:28:19;;;;;;;37.50;35.40;;;-8.20;75.30;;;;;;5028988;28;20021;-76
2022/01/12 16:27:02;;;;;;;56.40;52.28;;;-11.30;73.00;;;;;;5109324;27;1321818;-68
2022/01/12 16:29:28;;;;;;;94.43;62.28;;;-11.20;74.70;;;;;;5128619;28;20032;-67
2022/01/12 16:31:57;;;;;;;43.10;41.25;;;-11.00;75.80;;;;;;5123928;27;20024;-69
2022/01/12 16:34:23;;;;;;;55.15;50.90;;;-10.80;75.80;;;;;;5109954;28;20020;-69
2022/01/12 16:36:49;;;;;;;62.85;56.08;;;-10.60;75.80;;;;;;5113320;28;20131;-70
2022/01/12 16:39:17;;;;;;;49.30;45.58;;;-10.50;75.50;;;;;;5130075;28;20023;-71
2022/01/12 16:41:44;;;;;;;57.13;51.92;;;-10.30;75.50;;;;;;5131378;28;20027;-70
2022/01/12 16:44:10;;;;;;;41.20;38.42;;;-10.20;75.30;;;;;;5128068;28;20476;-70
2022/01/12 16:46:39;;;;;;;53.38;49.33;;;-10.00;75.40;;;;;;5127510;28;20038;-70
2022/01/12 16:49:07;;;;;;;73.53;65.90;;;-9.80;75.40;;;;;;5128992;27;20034;-70
2022/01/12 16:51:32;;;;;;;35.20;33.33;;;-9.70;74.80;;;;;;5127419;28;20030;-69
2022/01/12 16:53:59;;;;;;;66.65;60.95;;;-9.50;74.70;;;;;;5128727;28;20035;-69
2022/01/12 16:56:24;;;;;;;35.83;33.83;;;-9.50;73.90;;;;;;5127049;28;20030;-69
2022/01/12 16:58:50;;;;;;;101.40;89.80;;;-9.60;73.40;;;;;;5128340;28;20029;-70
2022/01/12 17:01:16;;;;;;;53.75;49.65;;;-9.50;74.20;;;;;;5129873;27;20499;-71
2022/01/12 17:03:44;;;;;;;39.67;37.35;;;-9.40;73.80;;;;;;5128462;28;20465;-68
2022/01/12 17:06:13;;;;;;;34.10;32.50;;;-9.50;73.80;;;;;;5125898;28;20035;-69
2022/01/12 17:08:41;;;;;;;45.22;41.95;;;-9.40;74.10;;;;;;5128289;28;20088;-69
2022/01/12 17:11:07;;;;;;;39.15;37.33;;;-9.30;74.20;;;;;;5120436;27;20020;-70
2022/01/12 17:13:32;;;;;;;42.85;40.00;;;-9.30;73.60;;;;;;5108955;28;20061;-70
2022/01/12 17:16:01;;;;;;;31.63;30.50;;;-9.30;73.30;;;;;;5109038;28;20413;-69
2022/01/12 17:18:54;;;;;;;31.48;30.05;;;-9.30;73.20;;;;;;5107727;28;20020;-70
2022/01/12 17:21:21;;;;;;;34.85;33.45;;;-9.30;73.20;;;;;;5134561;27;20024;-71
2022/01/12 17:24:05;;;;;;;36.03;33.95;;;-9.40;72.10;;;;;;5116309;27;20469;-71
2022/01/12 17:26:39;;;;;;;40.70;37.72;;;-9.40;72.40;;;;;;5104868;28;20048;-69
2022/01/12 17:29:13;;;;;;;34.38;32.72;;;-9.50;72.10;;;;;;5107451;28;20020;-72
2022/01/12 17:31:39;;;;;;;44.67;42.33;;;-9.50;72.60;;;;;;5107582;28;20462;-69
2022/01/12 17:34:07;;;;;;;33.40;31.90;;;-9.50;72.70;;;;;;5108298;28;20028;-69
2022/01/12 17:36:33;;;;;;;33.15;31.65;;;-9.50;72.60;;;;;;5094830;28;20028;-70
2022/01/12 17:38:59;;;;;;;31.15;29.90;;;-9.50;72.70;;;;;;5095124;28;20111;-70
2022/01/12 17:41:25;;;;;;;31.25;30.25;;;-9.40;73.00;;;;;;5094602;28;20162;-71
2022/01/12 17:43:51;;;;;;;30.35;28.83;;;-9.30;72.90;;;;;;5091335;28;20085;-69
2022/01/12 17:46:16;;;;;;;31.75;30.23;;;-9.30;72.10;;;;;;5079923;28;20540;-70
2022/01/12 17:48:43;;;;;;;31.65;30.35;;;-9.40;71.90;;;;;;5085660;28;20539;-69
2022/01/12 17:51:09;;;;;;;33.72;32.15;;;-9.50;71.80;;;;;;5095022;28;20073;-69
2022/01/12 17:53:36;;;;;;;38.60;36.45;;;-9.50;71.80;;;;;;5119211;27;20024;-70
2022/01/12 17:56:05;;;;;;;89.90;81.80;;;-9.50;71.30;;;;;;5092513;28;20111;-70
2022/01/12 17:58:31;;;;;;;38.90;36.40;;;-9.50;71.20;;;;;;5093644;28;20063;-71
2022/01/12 18:00:57;;;;;;;39.28;37.13;;;-9.50;71.00;;;;;;5088367;28;20390;-68
2022/01/12 18:03:22;;;;;;;42.03;38.85;;;-9.60;70.40;;;;;;5087184;28;20038;-69
2022/01/12 18:05:48;;;;;;;32.60;30.88;;;-9.70;70.30;;;;;;5086517;28;20024;-70
2022/01/12 18:08:14;;;;;;;29.83;28.55;;;-9.60;70.60;;;;;;5105709;27;20032;-70
2022/01/12 18:10:40;;;;;;;38.17;36.35;;;-9.50;71.10;;;;;;5087159;28;20035;-70
2022/01/12 18:13:06;;;;;;;35.88;33.55;;;-9.50;71.10;;;;;;5094664;28;20077;-69
2022/01/12 18:15:40;;;;;;;39.00;35.95;;;-9.40;70.90;;;;;;5094725;28;20032;-69
2022/01/12 18:18:10;;;;;;;31.00;29.80;;;-9.40;70.70;;;;;;5096071;28;20116;-69
2022/01/12 18:20:36;;;;;;;38.20;35.92;;;-9.30;71.30;;;;;;5094362;28;20431;-68
2022/01/12 18:23:02;;;;;;;33.90;32.50;;;-9.20;71.60;;;;;;5094153;28;20390;-69
2022/01/12 18:25:27;;;;;;;37.63;35.10;;;-9.20;70.80;;;;;;5094055;28;20044;-70
2022/01/12 18:27:53;;;;;;;37.33;35.17;;;-9.20;70.50;;;;;;5094169;28;20033;-70
2022/01/12 18:30:19;;;;;;;36.30;34.38;;;-9.40;70.20;;;;;;5093302;28;20043;-70
2022/01/12 18:32:44;;;;;;;40.30;38.33;;;-9.40;70.50;;;;;;5090056;28;20062;-69
2022/01/12 18:35:10;;;;;;;32.00;30.52;;;-9.30;71.00;;;;;;5110398;27;20516;-71
2022/01/12 18:37:36;;;;;;;61.88;56.50;;;-9.30;70.90;;;;;;5091601;28;20386;-70
2022/01/12 18:40:12;;;;;;;31.40;29.65;;;-9.30;70.80;;;;;;5091607;28;20032;-69
2022/01/12 18:42:37;;;;;;;31.77;30.73;;;-9.20;71.40;;;;;;5091156;28;20024;-71
2022/01/12 18:45:03;;;;;;;30.83;29.73;;;-9.00;71.60;;;;;;5092330;28;20040;-71
2022/01/12 18:47:29;;;;;;;31.15;29.42;;;-8.90;71.70;;;;;;5092493;28;20077;-72
2022/01/12 18:49:55;;;;;;;32.85;31.15;;;-8.80;71.50;;;;;;5092724;28;20024;-72
2022/01/12 18:52:20;;;;;;;40.00;37.75;;;-8.80;71.20;;;;;;5093678;28;20099;-70
2022/01/12 18:54:46;;;;;;;35.20;32.95;;;-8.70;71.10;;;;;;5094955;28;20035;-70
2022/01/12 18:57:12;;;;;;;30.38;29.17;;;-8.80;70.60;;;;;;5093652;28;20110;-72
2022/01/12 18:59:37;;;;;;;36.47;34.80;;;-8.90;70.70;;;;;;5127760;27;20072;-71
2022/01/12 19:02:03;;;;;;;30.30;29.02;;;-8.90;70.80;;;;;;5094828;28;20028;-73
2022/01/12 19:04:29;;;;;;;38.28;35.58;;;-8.90;71.00;;;;;;5127872;27;20020;-69
2022/01/12 19:06:55;;;;;;;30.55;29.25;;;-8.90;71.10;;;;;;5127482;27;20424;-70
2022/01/12 19:09:20;;;;;;;31.85;30.42;;;-8.80;71.40;;;;;;5093542;28;20115;-71
2022/01/12 19:11:46;;;;;;;30.58;29.15;;;-8.70;72.20;;;;;;5093964;28;20058;-69
2022/01/12 19:14:14;;;;;;;32.03;30.42;;;-8.60;71.80;;;;;;5094798;28;20149;-55
2022/01/12 19:16:43;;;;;;;32.38;31.13;;;-8.50;71.20;;;;;;5094383;28;20028;-64
2022/01/12 19:19:09;;;;;;;31.17;29.33;;;-8.60;70.80;;;;;;5092965;28;20048;-63
2022/01/12 19:21:36;;;;;;;33.63;32.05;;;-8.60;71.30;;;;;;5093420;28;20112;-64
2022/01/12 19:24:02;;;;;;;29.52;28.30;;;-8.60;71.20;;;;;;5092621;28;20027;-63
2022/01/12 19:26:29;;;;;;;31.17;29.52;;;-8.70;70.60;;;;;;5092271;28;20129;-64
2022/01/12 19:28:59;;;;;;;30.42;29.10;;;-8.80;70.50;;;;;;5091190;28;20162;-63
2022/01/12 19:31:25;;;;;;;30.63;28.83;;;-8.80;70.60;;;;;;5091069;28;20020;-63
2022/01/12 19:33:52;;;;;;;31.77;30.52;;;-8.80;70.60;;;;;;5092147;28;20036;-64
2022/01/12 19:36:20;;;;;;;29.50;28.33;;;-8.80;70.60;;;;;;5090837;28;20571;-64
2022/01/12 19:38:46;;;;;;;31.67;30.42;;;-8.90;70.50;;;;;;5091350;28;20023;-65
2022/01/12 19:41:12;;;;;;;33.05;31.42;;;-8.90;70.50;;;;;;5090538;28;20028;-63
2022/01/12 19:43:38;;;;;;;30.85;29.75;;;-8.90;70.60;;;;;;5113224;27;20043;-62
2022/01/12 19:46:04;;;;;;;35.55;33.58;;;-8.80;70.90;;;;;;5089961;28;20028;-63
2022/01/12 19:48:30;;;;;;;31.98;30.05;;;-8.80;70.90;;;;;;5091226;28;20032;-63
2022/01/12 19:50:55;;;;;;;30.67;29.45;;;-8.70;71.10;;;;;;5090020;28;20108;-62
2022/01/12 19:53:57;;;;;;;30.52;29.17;;;-8.70;70.80;;;;;;5089947;28;21247;-62
2022/01/12 19:56:24;;;;;;;29.58;28.30;;;-8.70;70.60;;;;;;5090062;28;20034;-62
2022/01/12 19:59:09;;;;;;;31.75;29.77;;;-8.70;70.60;;;;;;5089776;28;20038;-63
2022/01/12 20:01:38;;;;;;;30.42;29.13;;;-8.60;70.90;;;;;;5089487;28;20103;-62
2022/01/12 20:04:14;;;;;;;29.98;28.77;;;-8.70;70.20;;;;;;5118208;27;20504;-62
2022/01/12 20:06:40;;;;;;;30.42;28.80;;;-8.70;70.70;;;;;;5089145;28;20060;-62
2022/01/12 20:09:28;;;;;;;39.88;36.88;;;-8.70;70.40;;;;;;5090674;28;20032;-61
2022/01/12 20:11:58;;;;;;;43.55;40.17;;;-8.80;70.40;;;;;;5090079;28;20032;-62
2022/01/12 20:14:25;;;;;;;33.08;31.55;;;-8.70;70.70;;;;;;5091831;28;20038;-63
2022/01/12 20:16:59;;;;;;;30.40;28.33;;;-8.70;70.70;;;;;;5091793;28;20467;-63
2022/01/12 20:22:48;;;;;;;29.98;28.58;;;-8.60;70.80;;;;;;5090982;28;20035;-62
2022/01/12 20:25:16;;;;;;;29.83;28.65;;;-8.60;70.80;;;;;;5088413;28;20493;-63
2022/01/12 20:27:43;;;;;;;28.52;27.23;;;-8.60;70.20;;;;;;5090815;28;20530;-62
2022/01/12 20:30:10;;;;;;;30.85;28.52;;;-8.60;70.40;;;;;;5090026;28;20016;-61
2022/01/12 20:32:36;;;;;;;28.33;27.13;;;-8.60;70.30;;;;;;5089852;28;20120;-61
2022/01/12 20:35:08;;;;;;;29.65;28.00;;;-8.60;70.10;;;;;;5091238;28;20039;-61
2022/01/12 20:37:33;;;;;;;28.98;27.80;;;-8.70;70.00;;;;;;5087674;28;20024;-61
2022/01/12 20:40:00;;;;;;;31.00;29.55;;;-8.70;70.20;;;;;;5088927;28;20020;-62
2022/01/12 20:42:26;;;;;;;31.52;30.13;;;-8.70;70.20;;;;;;5090639;28;20047;-63
2022/01/12 20:44:52;;;;;;;27.92;26.95;;;-8.70;70.40;;;;;;5091586;28;20048;-63
2022/01/12 20:47:22;;;;;;;29.08;27.83;;;-8.60;70.40;;;;;;5089870;28;20031;-63
2022/01/12 20:49:48;;;;;;;32.13;30.73;;;-8.60;70.20;;;;;;5089914;28;20027;-62
2022/01/12 20:52:14;;;;;;;30.90;29.60;;;-8.80;69.70;;;;;;5090190;28;20115;-62
2022/01/12 20:54:40;;;;;;;32.95;31.35;;;-8.70;70.20;;;;;;5089956;28;20149;-63
2022/01/12 20:57:07;;;;;;;30.40;28.88;;;-8.70;70.10;;;;;;5089880;28;20028;-63
2022/01/12 20:59:35;;;;;;;35.85;33.60;;;-8.70;70.00;;;;;;5089889;28;20103;-63
2022/01/12 21:02:05;;;;;;;30.15;28.67;;;-8.70;69.90;;;;;;5089782;28;20028;-62
2022/01/12 21:04:32;;;;;;;30.42;28.85;;;-8.70;70.10;;;;;;5087099;28;20016;-61
2022/01/12 21:06:58;;;;;;;30.38;29.08;;;-8.60;70.10;;;;;;5089755;28;20389;-62
2022/01/12 21:09:26;;;;;;;26.70;25.80;;;-8.50;69.90;;;;;;5114755;28;20032;-65
2022/01/12 21:11:51;;;;;;;33.17;31.45;;;-8.60;69.20;;;;;;5087870;28;20024;-66
2022/01/12 21:14:18;;;;;;;40.35;37.67;;;-8.70;68.70;;;;;;5093343;28;20027;-67
2022/01/12 21:16:46;;;;;;;28.38;27.48;;;-8.90;68.70;;;;;;5093423;28;20153;-65
2022/01/12 21:19:12;;;;;;;33.70;31.67;;;-8.90;68.70;;;;;;5090755;28;20024;-66
2022/01/12 21:21:38;;;;;;;30.58;29.35;;;-9.00;69.00;;;;;;5092795;28;20028;-65
2022/01/12 21:24:05;;;;;;;35.10;33.10;;;-8.90;69.40;;;;;;5093075;28;20036;-66
2022/01/12 21:26:30;;;;;;;34.75;33.08;;;-8.90;69.50;;;;;;5091647;28;20082;-66
2022/01/12 21:28:56;;;;;;;33.95;32.17;;;-8.90;69.20;;;;;;5092533;28;20028;-66
2022/01/12 21:31:23;;;;;;;33.45;31.65;;;-8.90;69.40;;;;;;5094328;28;20024;-66
2022/01/12 21:33:49;;;;;;;33.08;31.13;;;-8.90;69.20;;;;;;5093107;28;20024;-66
2022/01/12 21:36:18;;;;;;;31.17;29.70;;;-9.00;69.20;;;;;;5092006;28;20035;-66
2022/01/12 21:38:52;;;;;;;32.20;30.55;;;-8.90;69.50;;;;;;5093419;28;20228;-66
2022/01/12 21:41:21;;;;;;;30.80;29.33;;;-8.90;69.40;;;;;;5090741;28;20024;-66
2022/01/12 21:43:50;;;;;;;28.63;27.25;;;-9.00;69.20;;;;;;5091781;28;20081;-66
2022/01/12 21:46:19;;;;;;;31.52;29.95;;;-9.00;69.20;;;;;;5091682;28;20119;-67
2022/01/12 21:48:46;;;;;;;32.22;30.90;;;-8.90;69.30;;;;;;5091661;28;20031;-65
2022/01/12 21:51:12;;;;;;;34.80;32.90;;;-8.90;69.30;;;;;;5089924;28;20016;-66
2022/01/12 21:53:38;;;;;;;31.58;30.02;;;-9.00;69.10;;;;;;5091927;28;20020;-66
2022/01/12 21:56:08;;;;;;;32.53;30.73;;;-9.00;69.50;;;;;;5091664;28;20024;-66
2022/01/12 21:58:35;;;;;;;32.85;31.35;;;-9.00;69.30;;;;;;5091709;28;20111;-67
2022/01/12 22:01:01;;;;;;;31.27;30.00;;;-9.00;69.40;;;;;;5093498;28;20028;-66
2022/01/12 22:03:29;;;;;;;32.53;30.83;;;-9.20;68.80;;;;;;5093152;28;20028;-66
2022/01/12 22:05:55;;;;;;;31.65;30.45;;;-9.20;69.20;;;;;;5119906;27;20387;-66
2022/01/12 22:08:20;;;;;;;33.50;31.80;;;-9.20;69.50;;;;;;5111843;27;20115;-66
2022/01/12 22:10:46;;;;;;;29.60;28.05;;;-9.00;69.70;;;;;;5092713;28;20024;-67
2022/01/12 22:13:12;;;;;;;40.08;37.67;;;-8.90;69.80;;;;;;5094428;28;20426;-67
2022/01/12 22:15:37;;;;;;;31.60;30.10;;;-9.00;69.20;;;;;;5093883;28;20110;-67
2022/01/12 22:18:03;;;;;;;30.15;28.40;;;-8.90;69.50;;;;;;5093727;28;20039;-66
2022/01/12 22:20:29;;;;;;;30.98;29.65;;;-8.90;69.70;;;;;;5095013;28;20024;-67
2022/01/12 22:22:55;;;;;;;40.35;36.78;;;-8.90;69.10;;;;;;5093460;28;20465;-67
2022/01/12 22:25:21;;;;;;;29.38;28.17;;;-8.90;69.10;;;;;;5094620;28;20052;-67
2022/01/12 22:27:46;;;;;;;30.92;29.40;;;-8.90;69.20;;;;;;5093313;28;20081;-66
2022/01/12 22:30:12;;;;;;;35.65;33.67;;;-8.80;69.90;;;;;;5093658;28;20028;-66
2022/01/12 22:32:38;;;;;;;30.02;28.77;;;-8.90;68.80;;;;;;5093463;28;20111;-66
2022/01/12 22:35:06;;;;;;;31.35;29.80;;;-9.00;69.00;;;;;;5093427;28;20119;-65
2022/01/12 22:37:31;;;;;;;29.67;28.58;;;-9.10;69.20;;;;;;5094550;28;20489;-66
2022/01/12 22:39:57;;;;;;;31.80;30.08;;;-9.00;69.40;;;;;;5094398;28;20052;-65
2022/01/12 22:42:23;;;;;;;33.05;31.35;;;-9.10;69.00;;;;;;5094408;28;20352;-65
2022/01/12 22:44:49;;;;;;;34.10;32.67;;;-9.10;69.00;;;;;;5094237;28;20045;-65
2022/01/12 22:47:15;;;;;;;31.48;30.08;;;-9.00;69.20;;;;;;5094455;28;20024;-65
2022/01/12 22:49:40;;;;;;;34.35;32.97;;;-9.00;69.80;;;;;;5093448;28;20024;-67
2022/01/12 22:52:07;;;;;;;32.50;30.98;;;-8.90;69.40;;;;;;5095086;28;20024;-65
2022/01/12 22:54:37;;;;;;;36.60;34.35;;;-8.90;69.10;;;;;;5093782;28;20534;-65
2022/01/12 22:57:15;;;;;;;42.08;38.83;;;-8.90;68.90;;;;;;5093373;28;20067;-65
2022/01/12 22:59:43;;;;;;;30.42;29.08;;;-8.90;68.90;;;;;;5095248;28;20020;-66
2022/01/12 23:02:08;;;;;;;34.53;32.47;;;-9.10;68.90;;;;;;5093977;28;20032;-66
2022/01/12 23:04:34;;;;;;;30.60;29.20;;;-9.00;69.10;;;;;;5094953;28;20030;-66
2022/01/12 23:06:59;;;;;;;31.95;30.55;;;-9.00;69.10;;;;;;5095032;28;20032;-66
2022/01/12 23:09:25;;;;;;;35.08;33.00;;;-8.90;69.20;;;;;;5095020;28;20036;-65
2022/01/12 23:11:51;;;;;;;30.73;29.30;;;-8.90;69.00;;;;;;5094163;28;20028;-66
2022/01/12 23:14:17;;;;;;;38.03;35.85;;;-9.00;68.60;;;;;;5095193;28;20109;-65
2022/01/12 23:16:43;;;;;;;32.83;31.30;;;-9.10;68.20;;;;;;5095186;28;20034;-65
2022/01/12 23:19:09;;;;;;;32.00;30.45;;;-9.30;68.00;;;;;;5094895;28;20370;-66
2022/01/12 23:21:34;;;;;;;41.03;38.28;;;-9.30;68.80;;;;;;5094930;28;20112;-65
2022/01/12 23:24:01;;;;;;;33.60;31.88;;;-9.30;68.60;;;;;;5093312;28;20052;-66
2022/01/12 23:26:27;;;;;;;41.70;38.58;;;-9.30;69.00;;;;;;5093229;28;20048;-65
2022/01/12 23:28:54;;;;;;;51.95;47.53;;;-9.20;69.00;;;;;;5095009;28;20032;-66
2022/01/12 23:31:22;;;;;;;33.10;31.55;;;-9.30;68.80;;;;;;5093527;28;20046;-68
2022/01/12 23:55:06;;;;;;;33.42;31.65;;;-9.30;69.00;;;;;;5094303;28;20054;-65
2022/01/12 23:57:31;;;;;;;52.85;46.35;;;-9.30;68.80;;;;;;5092940;28;20107;-67
2022/01/12 23:59:57;;;;;;;38.67;36.55;;;-9.40;68.70;;;;;;5094183;28;20054;-65
